createdAt,value
2023-04-29T20:01:55.284Z,100596.72
2023-04-29T20:02:59.548Z,100594.94
2023-04-29T20:04:03.334Z,100601.78
2023-04-29T20:05:10.211Z,100595.91
2023-04-29T20:06:16.539Z,100596.47
2023-04-29T20:07:20.364Z,100596.72
2023-04-29T20:08:24.062Z,100597.94
2023-04-29T20:09:27.852Z,100587.00
2023-04-29T20:10:31.757Z,100597.88
2023-04-29T20:11:35.456Z,100604.19
2023-04-29T20:12:39.293Z,100604.50
2023-04-29T20:13:43.045Z,100602.34
2023-04-29T20:14:46.891Z,100605.97
2023-04-29T20:15:50.677Z,100606.00
2023-04-29T20:16:57.583Z,100606.25
2023-04-29T20:18:02.704Z,100606.72
2023-04-29T20:19:06.534Z,100599.09
2023-04-29T20:20:10.843Z,100597.28
2023-04-29T20:21:14.636Z,100579.91
2023-04-29T20:22:18.468Z,100600.84
2023-04-29T20:23:22.193Z,100574.00
2023-04-29T20:24:25.995Z,100596.00
2023-04-29T20:25:29.801Z,100591.81
2023-04-29T20:26:33.595Z,100584.41
2023-04-29T20:27:37.416Z,100595.97
2023-04-29T20:28:41.263Z,100591.56
2023-04-29T20:29:45.041Z,100586.91
2023-04-29T20:30:48.792Z,100582.91
2023-04-29T20:31:52.663Z,100578.03
2023-04-29T20:32:58.206Z,100567.59
2023-04-29T20:34:01.882Z,100579.69
2023-04-29T20:35:06.044Z,100575.25
2023-04-29T20:36:09.781Z,100550.19
2023-04-29T20:37:13.554Z,100546.00
2023-04-29T20:38:17.395Z,100566.78
2023-04-29T20:39:21.288Z,100547.81
2023-04-29T20:40:25.100Z,100568.03
2023-04-29T20:41:28.911Z,100566.53
2023-04-29T20:42:32.690Z,100575.44
2023-04-29T20:43:36.384Z,100578.63
2023-04-29T20:44:40.528Z,100564.38
2023-04-29T20:45:44.331Z,100570.78
2023-04-29T20:46:48.051Z,100583.50
2023-04-29T20:47:51.782Z,100575.69
2023-04-29T20:48:57.175Z,100579.69
2023-04-29T20:50:01.387Z,100579.41
2023-04-29T20:51:05.326Z,100564.97
2023-04-29T20:52:09.194Z,100573.38
2023-04-29T20:53:12.892Z,100569.00
2023-04-29T20:54:16.677Z,100565.09
2023-04-29T20:55:20.475Z,100568.81
2023-04-29T20:56:24.246Z,100557.25
2023-04-29T20:57:28.087Z,100557.59
2023-04-29T20:58:31.833Z,100565.97
2023-04-29T20:59:35.618Z,100566.69
2023-04-29T21:00:39.381Z,100547.53
2023-04-29T21:01:43.214Z,100551.56
2023-04-29T21:02:47.045Z,100570.78
2023-04-29T21:03:50.925Z,100566.09
2023-04-29T21:04:56.280Z,100568.84
2023-04-29T21:05:59.984Z,100574.09
2023-04-29T21:07:04.174Z,100571.06
2023-04-29T21:08:07.911Z,100569.53
2023-04-29T21:09:11.598Z,100577.19
2023-04-29T21:10:15.393Z,100569.53
2023-04-29T21:11:19.161Z,100572.00
2023-04-29T21:12:22.924Z,100577.09
2023-04-29T21:13:26.644Z,100577.19
2023-04-29T21:14:30.446Z,100566.78
2023-04-29T21:15:34.145Z,100573.47
2023-04-29T21:16:37.917Z,100572.81
2023-04-29T21:17:41.734Z,100569.19
2023-04-29T21:18:45.839Z,100572.41
2023-04-29T21:19:49.622Z,100568.84
2023-04-29T21:20:54.942Z,100583.44
2023-04-29T21:21:58.601Z,100569.44
2023-04-29T21:23:02.333Z,100581.66
2023-04-29T21:24:06.384Z,100580.59
2023-04-29T21:25:10.435Z,100579.44
2023-04-29T21:26:14.120Z,100585.88
2023-04-29T21:27:17.896Z,100583.56
2023-04-29T21:28:21.713Z,100587.53
2023-04-29T21:29:25.534Z,100584.41
2023-04-29T21:30:29.333Z,100578.44
2023-04-29T21:31:33.172Z,100594.91
2023-04-29T21:32:37.022Z,100587.88
2023-04-29T21:33:40.821Z,100591.91
2023-04-29T21:34:44.509Z,100586.56
2023-04-29T21:35:49.762Z,100571.06
2023-04-29T21:36:55.699Z,100597.97
2023-04-29T21:37:59.433Z,100601.19
2023-04-29T21:39:03.231Z,100604.72
2023-04-29T21:40:08.140Z,100598.78
2023-04-29T21:41:19.437Z,100606.78
2023-04-29T21:42:24.286Z,100608.47
2023-04-29T21:43:29.237Z,100600.59
2023-04-29T21:44:34.109Z,100610.09
2023-04-29T21:45:38.172Z,100614.16
2023-04-29T21:46:42.303Z,100614.16
2023-04-29T21:47:46.309Z,100610.44
2023-04-29T21:48:50.200Z,100617.03
2023-04-29T21:49:54.876Z,100618.91
2023-04-29T21:50:59.306Z,100613.47
2023-04-29T21:52:04.918Z,100613.56
2023-04-29T21:53:08.753Z,100610.53
2023-04-29T21:54:12.555Z,100616.50
2023-04-29T21:55:16.337Z,100620.94
2023-04-29T21:56:20.290Z,100620.94
2023-04-29T21:57:35.538Z,100619.44
2023-04-29T21:58:47.090Z,100608.22
2023-04-29T21:59:50.855Z,100609.81
2023-04-29T22:00:54.659Z,100612.75
2023-04-29T22:01:58.474Z,100598.06
2023-04-29T22:03:02.847Z,100601.34
2023-04-29T22:04:06.858Z,100613.19
2023-04-29T22:05:10.745Z,100618.53
2023-04-29T22:06:14.575Z,100627.22
2023-04-29T22:07:20.354Z,100619.28
2023-04-29T22:08:24.698Z,100623.72
2023-04-29T22:09:28.518Z,100624.88
2023-04-29T22:10:32.352Z,100628.19
2023-04-29T22:11:36.224Z,100623.44
2023-04-29T22:12:39.937Z,100627.47
2023-04-29T22:13:43.952Z,100628.25
2023-04-29T22:14:47.756Z,100627.47
2023-04-29T22:15:51.526Z,100638.13
2023-04-29T22:16:55.309Z,100629.84
2023-04-29T22:17:59.118Z,100638.59
2023-04-29T22:19:02.941Z,100642.44
2023-04-29T22:20:07.898Z,100643.94
2023-04-29T22:21:11.630Z,100645.19
2023-04-29T22:22:15.440Z,100646.41
2023-04-29T22:23:20.859Z,100653.84
2023-04-29T22:24:24.545Z,100648.75
2023-04-29T22:25:28.465Z,100647.16
2023-04-29T22:26:32.196Z,100646.81
2023-04-29T22:27:36.165Z,100645.56
2023-04-29T22:28:39.808Z,100642.34
2023-04-29T22:29:43.508Z,100647.16
2023-04-29T22:30:47.252Z,100629.44
2023-04-29T22:31:50.998Z,100654.19
2023-04-29T22:32:54.831Z,100647.88
2023-04-29T22:33:58.528Z,100656.00
2023-04-29T22:35:02.249Z,100660.09
2023-04-29T22:36:06.221Z,100661.88
2023-04-29T22:37:09.912Z,100669.59
2023-04-29T22:38:13.617Z,100671.75
2023-04-29T22:39:19.032Z,100675.78
2023-04-29T22:40:22.744Z,100674.00
2023-04-29T22:41:26.496Z,100671.69
2023-04-29T22:42:30.315Z,100633.84
2023-04-29T22:43:34.108Z,100678.78
2023-04-29T22:44:37.874Z,100668.09
2023-04-29T22:45:41.666Z,100660.53
2023-04-29T22:46:45.468Z,100679.69
2023-04-29T22:47:49.243Z,100674.00
2023-04-29T22:48:52.988Z,100674.44
2023-04-29T22:49:56.729Z,100686.38
2023-04-29T22:51:00.826Z,100686.19
2023-04-29T22:52:04.631Z,100684.94
2023-04-29T22:53:08.312Z,100689.03
2023-04-29T22:54:11.969Z,100688.41
2023-04-29T22:55:17.536Z,100681.72
2023-04-29T22:56:21.265Z,100682.53
2023-04-29T22:57:25.038Z,100682.19
2023-04-29T22:58:28.789Z,100693.34
2023-04-29T22:59:32.516Z,100662.28
2023-04-29T23:00:36.309Z,100692.34
2023-04-29T23:01:40.076Z,100690.38
2023-04-29T23:02:43.989Z,100696.81
2023-04-29T23:03:48.160Z,100696.91
2023-04-29T23:04:51.992Z,100687.44
2023-04-29T23:05:59.209Z,100699.91
2023-04-29T23:07:03.086Z,100699.66
2023-04-29T23:08:07.016Z,100703.66
2023-04-29T23:09:10.743Z,100704.44
2023-04-29T23:10:14.550Z,100707.22
2023-04-29T23:11:19.939Z,100707.31
2023-04-29T23:12:23.688Z,100703.66
2023-04-29T23:13:27.474Z,100711.69
2023-04-29T23:14:31.268Z,100708.56
2023-04-29T23:15:35.052Z,100712.75
2023-04-29T23:16:38.792Z,100713.81
2023-04-29T23:17:42.601Z,100709.34
2023-04-29T23:18:46.331Z,100719.81
2023-04-29T23:19:50.020Z,100718.28
2023-04-29T23:20:53.802Z,100714.00
2023-04-29T23:21:57.563Z,100713.53
2023-04-29T23:23:01.343Z,100723.53
2023-04-29T23:24:05.698Z,100718.47
2023-04-29T23:25:09.967Z,100718.00
2023-04-29T23:26:13.697Z,100711.69
2023-04-29T23:27:19.095Z,100715.59
2023-04-29T23:28:22.867Z,100718.38
2023-04-29T23:29:26.551Z,100719.97
2023-04-29T23:30:30.270Z,100733.00
2023-04-29T23:31:34.057Z,100734.25
2023-04-29T23:32:37.873Z,100738.22
2023-04-29T23:33:41.627Z,100727.63
2023-04-29T23:34:45.321Z,100734.78
2023-04-29T23:35:52.063Z,100737.88
2023-04-29T23:36:55.866Z,100747.72
2023-04-29T23:37:59.708Z,100752.44
2023-04-29T23:39:03.466Z,100744.50
2023-04-29T23:40:08.621Z,100747.72
2023-04-29T23:41:12.363Z,100751.69
2023-04-29T23:42:16.113Z,100745.03
2023-04-29T23:43:21.506Z,100748.59
2023-04-29T23:44:25.249Z,100751.00
2023-04-29T23:45:28.915Z,100754.47
2023-04-29T23:46:32.794Z,100746.91
2023-04-29T23:47:36.553Z,100750.91
2023-04-29T23:48:40.282Z,100736.38
2023-04-29T23:49:43.999Z,100739.31
2023-04-29T23:50:47.987Z,100748.59
2023-04-29T23:51:51.805Z,100750.19
2023-04-29T23:52:55.530Z,100755.03
2023-04-29T23:53:59.266Z,100752.25
2023-04-29T23:55:03.244Z,100747.88
2023-04-29T23:56:07.609Z,100749.97
2023-04-29T23:57:11.394Z,100753.06
2023-04-29T23:58:15.144Z,100763.50
2023-04-29T23:59:20.543Z,100763.16
